Time;durP1;ratioP1;P1;durP2;ratioP2;P2;SDS_P1;SDS_P2;PMS_P1;PMS_P2;Temp;Humidity;BMP_temperature;BMP_pressure;BME280_temperature;BME280_humidity;BME280_pressure;Samples;Min_cycle;Max_cycle;Signal;HPM_P1;HPM_P2
2023/07/10 00:01:12;;;;;;;3.50;3.20;;;23.80;63.70;;;;;;5013406;28;20223;-74
2023/07/10 00:03:39;;;;;;;4.28;3.67;;;23.80;63.80;;;;;;5013366;28;20298;-75
2023/07/10 00:06:11;;;;;;;3.92;3.63;;;23.80;64.60;;;;;;5013178;28;20211;-75
2023/07/10 00:08:37;;;;;;;3.78;3.38;;;23.90;63.90;;;;;;5010477;28;20774;-74
2023/07/10 00:11:03;;;;;;;3.67;3.38;;;23.80;63.80;;;;;;5029627;28;20556;-74
2023/07/10 00:13:30;;;;;;;3.90;3.50;;;23.80;63.80;;;;;;5013396;28;20687;-74
2023/07/10 00:15:56;;;;;;;4.30;3.78;;;23.80;63.80;;;;;;5031619;28;20207;-75
2023/07/10 00:18:23;;;;;;;4.68;3.80;;;23.80;63.80;;;;;;5024435;28;20192;-74
2023/07/10 00:20:50;;;;;;;3.22;2.92;;;23.80;63.80;;;;;;5036429;28;20573;-75
2023/07/10 00:23:17;;;;;;;3.22;2.92;;;23.80;63.80;;;;;;5041595;28;20672;-75
2023/07/10 00:25:44;;;;;;;4.60;3.47;;;23.80;63.80;;;;;;5006960;28;20212;-74
2023/07/10 00:28:20;;;;;;;3.95;3.60;;;23.80;63.80;;;;;;5024332;28;20191;-75
2023/07/10 00:30:49;;;;;;;5.47;3.22;;;23.80;63.80;;;;;;5041376;28;20190;-74
2023/07/10 00:33:17;;;;;;;4.40;3.47;;;23.80;63.80;;;;;;5029865;28;20188;-75
2023/07/10 00:35:44;;;;;;;3.70;3.40;;;23.80;63.80;;;;;;5021115;28;20226;-73
2023/07/10 00:38:40;;;;;;;4.18;3.55;;;23.80;63.80;;;;;;5033207;28;20183;-75
2023/07/10 00:41:09;;;;;;;3.72;3.25;;;23.80;63.90;;;;;;5012196;28;20231;-75
2023/07/10 00:43:49;;;;;;;3.80;3.30;;;23.80;63.80;;;;;;5037628;28;20184;-75
2023/07/10 00:46:38;;;;;;;3.88;3.30;;;23.80;63.80;;;;;;5012967;28;20188;-74
2023/07/10 00:49:22;;;;;;;3.67;3.38;;;23.80;63.80;;;;;;5043314;28;20194;-74
2023/07/10 00:52:12;;;;;;;3.50;3.20;;;23.80;63.90;;;;;;5043824;28;20195;-74
2023/07/10 00:54:44;;;;;;;3.50;3.10;;;23.80;64.60;;;;;;5024019;28;20223;-75
2023/07/10 00:57:22;;;;;;;4.22;3.83;;;23.80;63.90;;;;;;5044711;28;20201;-75
2023/07/10 00:59:50;;;;;;;4.10;3.30;;;23.80;63.80;;;;;;5032253;28;20220;-75
2023/07/10 01:02:22;;;;;;;3.92;3.42;;;23.80;63.80;;;;;;5032583;28;20207;-74
2023/07/10 01:04:56;;;;;;;3.97;3.58;;;23.80;63.90;;;;;;5040276;28;20214;-74
2023/07/10 01:07:24;;;;;;;3.92;3.42;;;23.80;63.90;;;;;;5029408;28;20188;-74
2023/07/10 01:09:57;;;;;;;3.22;2.95;;;23.80;63.90;;;;;;5011177;28;20180;-74
2023/07/10 01:12:24;;;;;;;3.30;3.00;;;23.80;63.90;;;;;;5031235;28;20192;-75
2023/07/10 01:14:49;;;;;;;4.38;3.35;;;23.80;63.90;;;;;;5015285;28;20210;-74
2023/07/10 01:17:15;;;;;;;3.50;3.20;;;23.80;63.90;;;;;;5023878;28;20191;-74
2023/07/10 01:19:45;;;;;;;4.25;3.33;;;23.80;63.90;;;;;;5040375;28;20186;-75
2023/07/10 01:22:11;;;;;;;3.60;3.30;;;23.80;63.90;;;;;;5015726;28;20223;-74
2023/07/10 01:24:38;;;;;;;3.38;3.08;;;23.80;63.90;;;;;;5030685;28;20305;-74
2023/07/10 01:27:11;;;;;;;4.32;3.40;;;23.80;63.90;;;;;;5035706;28;20187;-74
2023/07/10 01:29:48;;;;;;;3.50;2.83;;;23.80;63.90;;;;;;5027363;28;20624;-75
2023/07/10 01:32:18;;;;;;;4.72;3.42;;;23.80;64.00;;;;;;5012217;28;20205;-74
2023/07/10 01:34:53;;;;;;;3.47;3.17;;;23.80;64.00;;;;;;5019024;28;20276;-75
2023/07/10 01:37:19;;;;;;;3.92;3.50;;;23.80;64.00;;;;;;5054052;28;20190;-74
2023/07/10 01:39:49;;;;;;;3.78;3.42;;;23.80;64.00;;;;;;5026175;28;20191;-75
2023/07/10 01:42:15;;;;;;;3.60;3.30;;;23.80;64.00;;;;;;5019257;28;20260;-74
2023/07/10 01:44:44;;;;;;;4.07;3.22;;;23.80;64.00;;;;;;5011374;28;20200;-74
2023/07/10 01:47:12;;;;;;;4.57;3.53;;;23.80;64.10;;;;;;5029799;28;20194;-75
2023/07/10 01:49:45;;;;;;;4.45;3.85;;;23.80;64.10;;;;;;5015589;28;20184;-75
2023/07/10 01:52:14;;;;;;;4.53;3.45;;;23.80;64.10;;;;;;5035402;28;20551;-74
2023/07/10 01:54:40;;;;;;;4.57;3.40;;;23.80;64.10;;;;;;5035608;28;20294;-75
2023/07/10 01:57:09;;;;;;;4.38;3.97;;;23.70;64.00;;;;;;5014555;28;20553;-74
2023/07/10 01:59:35;;;;;;;3.55;3.25;;;23.80;64.10;;;;;;5023804;28;20189;-75
2023/07/10 02:02:01;;;;;;;3.10;2.90;;;23.70;64.00;;;;;;5024279;28;20214;-75
2023/07/10 02:04:27;;;;;;;3.60;3.30;;;23.70;64.00;;;;;;5027848;28;20204;-75
2023/07/10 02:06:57;;;;;;;3.67;3.38;;;23.70;64.00;;;;;;5010673;28;20195;-75
2023/07/10 02:09:26;;;;;;;4.40;3.60;;;23.80;64.10;;;;;;5021645;28;20179;-73
2023/07/10 02:11:53;;;;;;;3.22;2.92;;;23.70;64.00;;;;;;5040390;28;20197;-73
2023/07/10 02:14:20;;;;;;;3.25;3.05;;;23.70;64.00;;;;;;5004695;28;20234;-75
2023/07/10 02:16:47;;;;;;;3.40;3.10;;;23.70;64.00;;;;;;5030789;28;20215;-75
2023/07/10 02:19:13;;;;;;;2.95;2.67;;;23.70;64.00;;;;;;5014798;28;20183;-75
2023/07/10 02:21:40;;;;;;;4.10;3.30;;;23.80;64.10;;;;;;5021587;28;20221;-75
2023/07/10 02:24:08;;;;;;;3.38;3.08;;;23.70;64.00;;;;;;5039247;28;20246;-75
2023/07/10 02:26:34;;;;;;;3.33;3.03;;;23.70;64.00;;;;;;5039477;28;20183;-75
2023/07/10 02:29:00;;;;;;;3.67;3.13;;;23.70;64.00;;;;;;5032647;28;20232;-75
2023/07/10 02:31:27;;;;;;;3.33;3.03;;;23.70;64.00;;;;;;5020914;28;20193;-74
2023/07/10 02:33:54;;;;;;;3.10;2.85;;;23.70;64.00;;;;;;5039132;28;20198;-74
2023/07/10 02:36:22;;;;;;;3.83;3.38;;;23.70;64.00;;;;;;5046509;28;20285;-74
2023/07/10 02:38:49;;;;;;;3.40;2.80;;;23.70;64.00;;;;;;5039009;28;20183;-74
2023/07/10 02:41:16;;;;;;;4.70;3.03;;;23.70;64.00;;;;;;5027459;28;20254;-75
2023/07/10 02:43:41;;;;;;;4.00;3.60;;;23.70;64.00;;;;;;5018148;28;20211;-74
2023/07/10 02:46:07;;;;;;;3.80;3.30;;;23.70;64.00;;;;;;5038560;28;20248;-75
2023/07/10 02:48:34;;;;;;;3.83;3.15;;;23.70;64.00;;;;;;5030241;28;20202;-74
2023/07/10 02:51:00;;;;;;;3.45;3.15;;;23.70;64.10;;;;;;5039933;28;20569;-74
2023/07/10 02:53:27;;;;;;;4.45;3.45;;;23.70;64.10;;;;;;5020373;28;20183;-74
2023/07/10 02:55:53;;;;;;;3.30;3.00;;;23.70;64.10;;;;;;5022242;28;20677;-74
2023/07/10 02:58:18;;;;;;;3.83;3.47;;;23.70;64.10;;;;;;5035290;28;20239;-74
2023/07/10 03:00:53;;;;;;;4.40;3.20;;;23.70;64.10;;;;;;5021308;28;20213;-74
2023/07/10 03:03:19;;;;;;;3.53;3.20;;;23.70;64.20;;;;;;5018053;28;20178;-74
2023/07/10 03:05:57;;;;;;;3.50;3.20;;;23.70;64.20;;;;;;5022876;28;20203;-75
2023/07/10 03:08:23;;;;;;;3.22;3.00;;;23.70;64.20;;;;;;5027714;28;20179;-75
2023/07/10 03:11:09;;;;;;;3.40;3.10;;;23.70;64.20;;;;;;5030006;28;20188;-75
2023/07/10 03:13:36;;;;;;;3.85;3.08;;;23.70;64.20;;;;;;5005389;28;20282;-74
2023/07/10 03:16:07;;;;;;;3.92;3.50;;;23.70;64.30;;;;;;5021350;28;20206;-74
2023/07/10 03:18:36;;;;;;;3.83;3.42;;;23.70;64.20;;;;;;5040875;28;20188;-74
2023/07/10 03:21:02;;;;;;;3.78;3.20;;;23.70;64.20;;;;;;5013363;28;20215;-74
2023/07/10 03:23:28;;;;;;;3.58;3.10;;;23.70;64.20;;;;;;5041767;28;20238;-73
2023/07/10 03:25:54;;;;;;;4.07;3.25;;;23.70;64.20;;;;;;5019639;28;20202;-74
2023/07/10 03:28:20;;;;;;;3.50;3.15;;;23.70;65.00;;;;;;5022418;28;20183;-74
2023/07/10 03:30:46;;;;;;;3.58;3.05;;;23.70;64.30;;;;;;5018948;28;20195;-74
2023/07/10 03:33:15;;;;;;;3.38;3.00;;;23.70;64.20;;;;;;5030337;28;20195;-75
2023/07/10 03:35:42;;;;;;;4.60;3.53;;;23.70;64.20;;;;;;5013124;28;20206;-75
2023/07/10 03:38:08;;;;;;;4.25;3.20;;;23.70;64.20;;;;;;5040408;28;20222;-75
2023/07/10 03:40:35;;;;;;;3.95;3.55;;;23.70;64.20;;;;;;5020317;28;20592;-75
2023/07/10 03:43:01;;;;;;;3.25;2.95;;;23.70;64.20;;;;;;5013840;28;20182;-75
2023/07/10 03:45:30;;;;;;;4.32;3.20;;;23.60;64.20;;;;;;5027615;28;20207;-75
2023/07/10 03:47:56;;;;;;;3.90;3.05;;;23.60;64.10;;;;;;5009441;28;20191;-75
2023/07/10 03:50:22;;;;;;;3.90;3.20;;;23.70;64.30;;;;;;5029763;28;20561;-75
2023/07/10 03:52:48;;;;;;;3.33;3.03;;;23.60;64.20;;;;;;5028622;28;20190;-75
2023/07/10 03:55:14;;;;;;;3.33;3.03;;;23.60;64.20;;;;;;5014208;28;20216;-75
2023/07/10 03:57:39;;;;;;;3.30;3.00;;;23.60;64.20;;;;;;5012461;28;20219;-75
2023/07/10 04:00:06;;;;;;;3.58;3.25;;;23.70;64.40;;;;;;5014484;28;20183;-74
2023/07/10 04:02:38;;;;;;;3.50;3.20;;;23.70;64.40;;;;;;5044888;28;20303;-75
2023/07/10 04:05:04;;;;;;;3.58;3.17;;;23.60;64.20;;;;;;5022151;28;20206;-75
2023/07/10 04:07:30;;;;;;;3.13;2.83;;;23.60;64.30;;;;;;5021895;28;20191;-74
2023/07/10 04:09:56;;;;;;;3.30;3.00;;;23.60;64.30;;;;;;5020187;28;20187;-73
2023/07/10 04:12:21;;;;;;;3.50;3.20;;;23.60;64.40;;;;;;5020672;28;20197;-74
2023/07/10 04:14:47;;;;;;;3.20;2.90;;;23.60;64.30;;;;;;5028186;28;20206;-74
2023/07/10 04:17:14;;;;;;;3.60;3.28;;;23.60;64.20;;;;;;5020490;28;20190;-74
2023/07/10 04:19:41;;;;;;;3.13;2.83;;;23.60;64.30;;;;;;5022274;28;20193;-74
2023/07/10 04:22:07;;;;;;;3.50;2.78;;;23.60;64.30;;;;;;5041438;28;20210;-74
2023/07/10 04:24:32;;;;;;;3.25;2.95;;;23.60;64.30;;;;;;5024160;28;20268;-72
2023/07/10 04:26:58;;;;;;;3.53;2.88;;;23.70;64.50;;;;;;5013867;28;20199;-75
2023/07/10 04:29:24;;;;;;;3.40;3.10;;;23.60;64.40;;;;;;5021053;28;20186;-73
2023/07/10 04:31:50;;;;;;;3.85;2.80;;;23.60;64.50;;;;;;5028855;28;20285;-73
2023/07/10 04:34:16;;;;;;;4.95;3.53;;;23.70;64.70;;;;;;5016462;28;20306;-75
2023/07/10 04:36:42;;;;;;;3.40;3.10;;;23.60;64.50;;;;;;5031412;28;20198;-74
2023/07/10 04:39:09;;;;;;;3.38;3.08;;;23.60;64.50;;;;;;5018110;28;20215;-75
2023/07/10 04:41:37;;;;;;;4.80;3.30;;;23.60;64.60;;;;;;5033069;28;20226;-73
2023/07/10 04:44:03;;;;;;;4.07;3.67;;;23.60;64.60;;;;;;5038216;28;20192;-74
2023/07/10 04:46:29;;;;;;;3.10;2.85;;;23.60;64.70;;;;;;5016540;28;20183;-74
2023/07/10 04:48:55;;;;;;;4.55;3.38;;;23.60;64.70;;;;;;5024880;28;20183;-74
2023/07/10 04:51:21;;;;;;;4.53;3.78;;;23.60;64.70;;;;;;5049551;28;20198;-75
2023/07/10 04:53:47;;;;;;;3.42;3.13;;;23.60;64.70;;;;;;5024168;28;20183;-76
2023/07/10 04:56:16;;;;;;;3.92;3.50;;;23.60;64.70;;;;;;5022993;28;20200;-74
2023/07/10 04:58:53;;;;;;;3.53;3.22;;;23.60;64.70;;;;;;5016474;28;20184;-75
2023/07/10 05:01:24;;;;;;;3.30;3.00;;;23.60;64.70;;;;;;5024429;28;20215;-75
2023/07/10 05:03:50;;;;;;;3.22;2.92;;;23.60;64.70;;;;;;5016216;28;20179;-74
2023/07/10 05:06:17;;;;;;;3.50;3.20;;;23.60;64.70;;;;;;5024524;28;20190;-74
2023/07/10 05:08:43;;;;;;;3.70;3.40;;;23.60;64.70;;;;;;5030545;28;20237;-75
2023/07/10 05:11:09;;;;;;;3.47;3.17;;;23.60;64.70;;;;;;5015569;28;20192;-75
2023/07/10 05:13:35;;;;;;;3.85;3.20;;;23.60;64.70;;;;;;5015085;28;20630;-74
2023/07/10 05:16:01;;;;;;;4.85;3.30;;;23.60;64.70;;;;;;5015885;28;20211;-74
2023/07/10 05:18:29;;;;;;;4.43;3.92;;;23.60;64.90;;;;;;5044755;28;20206;-74
2023/07/10 05:20:57;;;;;;;4.50;3.65;;;23.60;65.00;;;;;;5043843;28;20218;-75
2023/07/10 05:23:23;;;;;;;4.00;3.70;;;23.60;65.10;;;;;;5043832;28;20250;-74
2023/07/10 05:26:07;;;;;;;3.95;3.58;;;23.60;65.20;;;;;;5019505;28;20298;-75
2023/07/10 05:28:35;;;;;;;3.75;3.38;;;23.60;65.40;;;;;;5021681;28;20186;-74
2023/07/10 05:31:03;;;;;;;3.85;3.55;;;23.60;65.40;;;;;;5018968;28;20187;-74
2023/07/10 05:33:30;;;;;;;4.45;3.30;;;23.60;65.30;;;;;;5023796;28;20187;-74
2023/07/10 05:36:04;;;;;;;4.13;3.63;;;23.60;65.40;;;;;;5023521;28;20217;-74
2023/07/10 05:38:33;;;;;;;3.35;3.05;;;23.60;65.40;;;;;;5028725;28;20190;-74
2023/07/10 05:40:59;;;;;;;4.03;3.55;;;23.60;65.50;;;;;;5016233;28;20219;-74
2023/07/10 05:43:28;;;;;;;6.60;3.58;;;23.60;65.50;;;;;;5036694;28;20188;-73
2023/07/10 05:45:54;;;;;;;3.80;3.50;;;23.60;65.50;;;;;;5007835;28;20299;-75
2023/07/10 05:48:20;;;;;;;4.32;3.58;;;23.60;65.60;;;;;;5022720;28;20199;-74
2023/07/10 05:50:48;;;;;;;4.82;3.88;;;23.60;65.60;;;;;;5031891;28;20175;-75
2023/07/10 05:53:15;;;;;;;3.92;3.40;;;23.60;65.60;;;;;;5030361;28;20286;-74
2023/07/10 05:55:46;;;;;;;3.97;3.55;;;23.60;65.70;;;;;;5036506;28;20206;-74
2023/07/10 05:58:14;;;;;;;3.80;3.33;;;23.60;65.70;;;;;;5039968;28;20188;-74
2023/07/10 06:00:42;;;;;;;4.03;3.45;;;23.60;65.60;;;;;;5031514;28;20215;-74
2023/07/10 06:03:08;;;;;;;4.38;3.97;;;23.60;65.70;;;;;;5029352;28;20184;-74
2023/07/10 06:05:33;;;;;;;4.40;3.90;;;23.60;65.90;;;;;;5035726;28;20202;-75
2023/07/10 06:08:00;;;;;;;3.97;3.40;;;23.60;65.90;;;;;;5023503;28;20245;-74
2023/07/10 06:10:26;;;;;;;4.07;3.75;;;23.60;65.90;;;;;;5005928;28;20254;-74
2023/07/10 06:12:52;;;;;;;4.38;3.97;;;23.60;65.90;;;;;;5015054;28;20183;-74
2023/07/10 06:15:18;;;;;;;4.18;3.50;;;23.60;66.00;;;;;;5022563;28;20215;-75
2023/07/10 06:17:43;;;;;;;4.50;4.10;;;23.60;66.10;;;;;;5039700;28;20206;-75
2023/07/10 06:20:10;;;;;;;3.80;3.40;;;23.60;66.30;;;;;;5013309;28;20196;-74
2023/07/10 06:22:36;;;;;;;4.28;3.88;;;23.70;66.50;;;;;;5042753;28;20214;-74
2023/07/10 06:25:02;;;;;;;4.68;3.60;;;23.70;66.60;;;;;;5012698;28;20253;-74
2023/07/10 06:27:27;;;;;;;4.88;4.10;;;23.70;66.60;;;;;;5019780;28;20230;-74
2023/07/10 06:29:53;;;;;;;4.35;3.95;;;23.70;66.80;;;;;;5018107;28;20293;-75
2023/07/10 06:32:20;;;;;;;4.07;3.67;;;23.70;66.90;;;;;;5047373;28;20279;-74
2023/07/10 06:34:45;;;;;;;3.63;3.10;;;23.70;67.00;;;;;;5038645;28;20348;-74
2023/07/10 06:37:11;;;;;;;5.25;4.05;;;23.60;67.00;;;;;;5022462;28;20281;-74
2023/07/10 06:39:37;;;;;;;3.97;3.50;;;23.70;67.20;;;;;;5030624;28;20194;-74
2023/07/10 06:42:04;;;;;;;4.00;3.60;;;23.60;67.10;;;;;;5022237;28;20214;-74
2023/07/10 06:44:32;;;;;;;4.10;3.70;;;23.70;67.30;;;;;;5018448;28;20194;-74
2023/07/10 06:46:58;;;;;;;3.67;3.38;;;23.60;67.10;;;;;;5034338;28;20198;-74
2023/07/10 06:49:24;;;;;;;3.92;3.53;;;23.70;67.20;;;;;;5022864;28;20297;-74
2023/07/10 06:51:49;;;;;;;4.82;4.28;;;23.70;67.10;;;;;;5045284;28;20193;-75
2023/07/10 06:54:15;;;;;;;4.43;4.03;;;23.70;67.00;;;;;;5023717;28;20206;-74
2023/07/10 06:56:41;;;;;;;3.88;3.47;;;23.70;66.90;;;;;;5022332;28;20194;-74
2023/07/10 06:59:07;;;;;;;4.70;3.95;;;23.70;67.00;;;;;;5035744;28;20207;-74
2023/07/10 07:01:32;;;;;;;4.10;3.70;;;23.70;67.00;;;;;;5027536;28;20663;-75
2023/07/10 07:03:58;;;;;;;4.50;4.10;;;23.70;67.00;;;;;;5006001;28;20196;-74
2023/07/10 07:06:24;;;;;;;4.55;3.70;;;23.70;67.10;;;;;;5029398;28;20187;-75
2023/07/10 07:08:52;;;;;;;4.00;3.70;;;23.70;67.10;;;;;;5014082;28;20184;-75
2023/07/10 07:11:19;;;;;;;4.50;4.10;;;23.70;67.10;;;;;;5027970;28;20579;-75
2023/07/10 07:13:44;;;;;;;4.93;4.43;;;23.70;67.00;;;;;;5019214;28;20190;-75
2023/07/10 07:16:10;;;;;;;4.53;4.07;;;23.70;67.30;;;;;;5024353;28;20214;-74
2023/07/10 07:18:36;;;;;;;3.75;3.38;;;23.70;67.30;;;;;;5013963;28;20183;-75
2023/07/10 07:21:02;;;;;;;4.10;3.70;;;23.70;67.20;;;;;;5027019;28;20667;-74
2023/07/10 07:23:28;;;;;;;3.78;3.47;;;23.70;67.50;;;;;;5021457;28;20183;-74
2023/07/10 07:25:56;;;;;;;4.75;4.05;;;23.70;67.40;;;;;;5021856;28;20206;-75
2023/07/10 07:28:22;;;;;;;4.57;3.67;;;23.70;67.60;;;;;;5030432;28;20187;-74
2023/07/10 07:30:47;;;;;;;4.25;3.50;;;23.70;67.70;;;;;;5030453;28;20198;-74
2023/07/10 07:33:18;;;;;;;4.38;3.97;;;23.70;67.70;;;;;;5022298;28;20202;-74
2023/07/10 07:35:45;;;;;;;4.80;4.25;;;23.70;67.80;;;;;;5044545;28;20221;-75
2023/07/10 07:38:12;;;;;;;5.53;3.90;;;23.70;67.70;;;;;;5020880;28;20654;-74
2023/07/10 07:40:38;;;;;;;4.68;3.80;;;23.70;67.50;;;;;;5037651;28;20188;-74
2023/07/10 07:43:04;;;;;;;4.80;3.72;;;23.70;67.70;;;;;;5011021;28;20215;-75
2023/07/10 07:45:30;;;;;;;4.72;4.15;;;23.80;67.60;;;;;;5016718;28;20277;-75
2023/07/10 07:47:55;;;;;;;4.40;3.78;;;23.80;67.80;;;;;;5012641;28;20191;-75
2023/07/10 07:50:21;;;;;;;5.40;3.60;;;23.80;67.80;;;;;;5033343;28;20191;-74
2023/07/10 07:52:47;;;;;;;4.63;4.18;;;23.80;67.70;;;;;;5023241;28;20187;-74
2023/07/10 07:55:12;;;;;;;5.63;4.43;;;23.80;67.50;;;;;;5039325;28;20261;-74
2023/07/10 07:57:38;;;;;;;4.30;3.80;;;23.80;67.40;;;;;;5017622;28;20222;-74
2023/07/10 08:00:06;;;;;;;4.10;3.67;;;23.80;67.30;;;;;;5017245;28;20202;-75
2023/07/10 08:02:38;;;;;;;4.50;3.90;;;23.80;67.30;;;;;;5041962;28;20214;-75
2023/07/10 08:05:04;;;;;;;4.07;3.67;;;23.80;67.20;;;;;;5025251;28;20219;-74
2023/07/10 08:07:29;;;;;;;4.00;3.70;;;23.80;67.20;;;;;;5033585;28;20320;-74
2023/07/10 08:09:55;;;;;;;5.53;4.03;;;23.80;67.20;;;;;;5033808;28;20675;-75
2023/07/10 08:12:21;;;;;;;4.03;3.65;;;23.80;67.00;;;;;;5025451;28;20198;-75
2023/07/10 08:14:47;;;;;;;4.20;3.53;;;23.80;67.00;;;;;;5029689;28;20224;-74
2023/07/10 08:17:12;;;;;;;4.13;3.72;;;23.80;67.00;;;;;;5014403;28;20195;-74
2023/07/10 08:19:38;;;;;;;3.95;3.55;;;23.80;67.00;;;;;;5021445;28;20188;-75
2023/07/10 08:22:04;;;;;;;3.92;3.47;;;23.80;66.90;;;;;;5045361;28;20544;-75
2023/07/10 08:24:30;;;;;;;4.15;3.75;;;23.80;67.00;;;;;;5016771;28;20215;-75
2023/07/10 08:26:56;;;;;;;3.88;3.47;;;23.80;67.00;;;;;;5038336;28;20184;-74
2023/07/10 08:29:30;;;;;;;4.45;4.05;;;23.90;67.00;;;;;;5023321;28;20188;-75
2023/07/10 08:31:59;;;;;;;4.13;3.72;;;23.90;67.00;;;;;;5016622;28;20191;-74
2023/07/10 08:34:28;;;;;;;4.38;3.80;;;23.90;66.90;;;;;;5016277;28;20218;-74
2023/07/10 08:36:55;;;;;;;4.22;3.75;;;23.90;66.90;;;;;;5022728;28;20191;-75
2023/07/10 08:39:22;;;;;;;4.57;3.85;;;23.90;67.00;;;;;;5043023;28;20365;-74
2023/07/10 08:42:01;;;;;;;4.00;3.60;;;23.90;66.90;;;;;;5030086;28;20208;-75
2023/07/10 08:44:37;;;;;;;4.35;3.78;;;23.90;66.80;;;;;;5022023;28;20261;-75
2023/07/10 08:47:17;;;;;;;4.00;3.28;;;23.90;67.00;;;;;;5031984;28;20175;-75
2023/07/10 08:49:57;;;;;;;3.72;3.42;;;23.90;66.80;;;;;;5030307;28;20332;-75
2023/07/10 08:52:47;;;;;;;4.28;3.88;;;24.00;66.90;;;;;;5026239;28;20657;-74
2023/07/10 08:55:23;;;;;;;4.20;3.75;;;24.00;67.00;;;;;;5023724;28;20218;-74
2023/07/10 08:57:58;;;;;;;4.00;3.70;;;24.00;67.20;;;;;;5021510;28;20196;-75
2023/07/10 09:00:26;;;;;;;4.95;3.80;;;24.00;66.90;;;;;;5033023;28;20200;-74
2023/07/10 09:03:09;;;;;;;4.10;3.80;;;24.00;67.10;;;;;;5016025;28;20235;-75
2023/07/10 09:05:38;;;;;;;4.55;4.15;;;24.00;67.10;;;;;;5032538;28;20203;-75
2023/07/10 09:08:14;;;;;;;5.45;3.95;;;24.00;67.20;;;;;;5023182;28;20186;-75
2023/07/10 09:10:54;;;;;;;3.95;3.65;;;24.00;67.20;;;;;;5024348;28;20183;-75
2023/07/10 09:13:40;;;;;;;3.85;3.55;;;24.00;67.20;;;;;;5025365;28;20190;-75
2023/07/10 09:16:16;;;;;;;3.80;3.50;;;24.00;67.30;;;;;;5028330;28;20214;-74
2023/07/10 09:18:51;;;;;;;3.83;3.53;;;24.00;67.40;;;;;;5025007;28;20186;-75
2023/07/10 09:21:33;;;;;;;4.57;4.00;;;24.00;67.40;;;;;;5038481;28;20211;-74
2023/07/10 09:23:58;;;;;;;4.03;3.72;;;24.00;67.60;;;;;;5043289;28;20191;-74
2023/07/10 09:26:38;;;;;;;5.00;3.88;;;24.00;67.80;;;;;;5033539;28;20206;-74
2023/07/10 09:29:10;;;;;;;7.32;4.00;;;24.10;67.70;;;;;;5012585;28;20183;-75
2023/07/10 09:32:08;;;;;;;3.63;3.33;;;24.10;67.60;;;;;;5015188;28;20192;-74
2023/07/10 09:34:35;;;;;;;3.85;3.45;;;24.10;67.70;;;;;;5031230;28;20253;-75
2023/07/10 09:37:09;;;;;;;4.05;3.65;;;24.10;67.60;;;;;;5037434;28;20191;-75
2023/07/10 09:39:35;;;;;;;4.50;3.70;;;24.10;67.70;;;;;;5015019;28;20724;-75
2023/07/10 09:42:03;;;;;;;4.40;3.95;;;24.10;67.70;;;;;;5028645;28;20204;-74
2023/07/10 09:44:45;;;;;;;4.20;3.80;;;24.10;67.70;;;;;;5029908;28;20301;-75
2023/07/10 09:47:15;;;;;;;3.67;3.38;;;24.10;68.50;;;;;;5044944;28;20203;-75
2023/07/10 09:49:51;;;;;;;4.05;3.70;;;24.10;67.70;;;;;;5035686;28;20191;-75
2023/07/10 09:52:41;;;;;;;3.78;3.47;;;24.10;67.70;;;;;;5043110;28;20198;-75
2023/07/10 09:55:16;;;;;;;4.53;3.60;;;24.10;67.70;;;;;;5017683;28;20282;-75
2023/07/10 09:58:01;;;;;;;4.07;3.67;;;24.10;67.70;;;;;;5019593;28;20197;-75
2023/07/10 10:00:29;;;;;;;5.22;4.00;;;24.10;67.70;;;;;;5043336;28;20191;-75
2023/07/10 10:03:13;;;;;;;4.00;3.60;;;24.10;67.80;;;;;;5020992;28;20678;-75
2023/07/10 10:05:42;;;;;;;3.75;3.35;;;24.10;68.10;;;;;;5014778;28;20215;-75
2023/07/10 10:08:30;;;;;;;4.07;3.47;;;24.10;67.80;;;;;;5011953;28;20279;-75
2023/07/10 10:11:04;;;;;;;3.83;3.53;;;24.10;67.80;;;;;;5008874;28;20274;-75
2023/07/10 10:13:39;;;;;;;4.05;3.45;;;24.10;67.90;;;;;;5028632;28;20210;-74
2023/07/10 10:16:14;;;;;;;4.32;3.53;;;24.10;68.00;;;;;;5037672;28;20213;-75
2023/07/10 10:19:08;;;;;;;3.70;3.40;;;24.10;68.20;;;;;;5022797;28;20186;-75
2023/07/10 10:21:35;;;;;;;5.28;3.33;;;24.10;68.10;;;;;;5039633;28;20206;-75
2023/07/10 10:24:07;;;;;;;4.97;3.78;;;24.20;68.00;;;;;;5022799;28;20191;-75
2023/07/10 10:27:27;;;;;;;5.45;3.90;;;24.10;68.40;;;;;;5039020;28;20195;-74
2023/07/10 10:30:06;;;;;;;4.55;4.00;;;24.10;68.20;;;;;;5044622;28;20196;-75
2023/07/10 10:33:27;;;;;;;3.90;3.60;;;24.10;68.40;;;;;;5015879;28;20737;-73
2023/07/10 10:36:20;;;;;;;4.00;3.60;;;24.10;68.50;;;;;;5020897;28;20237;-74
2023/07/10 10:38:57;;;;;;;3.90;3.58;;;24.10;68.10;;;;;;5021812;28;20187;-74
2023/07/10 10:41:47;;;;;;;3.95;3.63;;;24.10;68.20;;;;;;5021936;28;20210;-74
2023/07/10 10:44:57;;;;;;;3.70;3.40;;;24.20;68.50;;;;;;5030261;28;20302;-74
2023/07/10 10:47:53;;;;;;;4.35;3.95;;;24.10;68.30;;;;;;5005836;28;20195;-74
2023/07/10 10:50:53;;;;;;;4.20;3.80;;;24.20;68.40;;;;;;5035244;28;20192;-73
2023/07/10 10:53:39;;;;;;;3.97;3.60;;;24.10;68.40;;;;;;5022629;28;20628;-74
2023/07/10 10:56:24;;;;;;;4.18;3.78;;;24.20;69.10;;;;;;5022376;28;20218;-74
2023/07/10 10:59:31;;;;;;;4.60;4.03;;;24.20;68.90;;;;;;5018678;28;20198;-74
2023/07/10 11:02:33;;;;;;;3.85;3.55;;;24.20;68.40;;;;;;5029414;28;20205;-74
2023/07/10 11:05:15;;;;;;;4.32;3.92;;;24.20;68.50;;;;;;5007272;28;20221;-73
2023/07/10 11:07:46;;;;;;;4.10;3.70;;;24.20;68.60;;;;;;5013425;28;20183;-73
2023/07/10 11:10:25;;;;;;;3.90;3.50;;;24.10;68.40;;;;;;5029454;28;20183;-73
2023/07/10 11:12:52;;;;;;;5.32;4.22;;;24.20;68.70;;;;;;5027045;28;20180;-73
2023/07/10 11:15:22;;;;;;;4.65;3.92;;;24.20;68.40;;;;;;5047968;28;20269;-73
2023/07/10 11:17:53;;;;;;;5.07;3.83;;;24.20;68.70;;;;;;5024289;28;20194;-74
2023/07/10 11:20:22;;;;;;;3.70;3.40;;;24.20;68.70;;;;;;5030613;28;20195;-73
2023/07/10 11:22:52;;;;;;;4.88;4.03;;;24.20;68.40;;;;;;5022673;28;20207;-73
2023/07/10 11:25:38;;;;;;;4.30;3.90;;;24.20;68.40;;;;;;5013130;28;20207;-73
2023/07/10 11:28:19;;;;;;;4.00;3.60;;;24.20;68.40;;;;;;5008519;28;20190;-73
2023/07/10 11:30:46;;;;;;;4.38;3.97;;;24.30;68.60;;;;;;5011783;28;20195;-73
2023/07/10 11:33:20;;;;;;;4.07;3.78;;;24.20;68.50;;;;;;5008980;28;20194;-73
2023/07/10 11:36:19;;;;;;;4.55;3.92;;;24.30;68.50;;;;;;5006742;28;20215;-73
2023/07/10 11:39:09;;;;;;;4.30;3.90;;;24.30;68.50;;;;;;5026350;28;20215;-73
2023/07/10 11:41:42;;;;;;;4.22;3.83;;;24.20;68.40;;;;;;5013262;28;20702;-73
2023/07/10 11:44:14;;;;;;;4.10;3.80;;;24.20;68.70;;;;;;5019276;28;20229;-72
2023/07/10 11:47:15;;;;;;;4.88;3.95;;;24.30;68.60;;;;;;5021855;28;20193;-72
2023/07/10 11:50:12;;;;;;;4.35;4.00;;;24.30;68.80;;;;;;5029532;28;20195;-72
2023/07/10 11:52:41;;;;;;;4.40;4.00;;;24.30;68.80;;;;;;5027662;28;20636;-73
2023/07/10 11:55:24;;;;;;;3.97;3.67;;;24.30;68.90;;;;;;5005675;28;20230;-73
2023/07/10 11:58:22;;;;;;;4.47;4.07;;;24.30;68.60;;;;;;5006056;28;20260;-73
2023/07/10 12:00:48;;;;;;;4.32;3.92;;;24.30;68.80;;;;;;5013781;28;20187;-72
2023/07/10 12:03:14;;;;;;;3.70;3.45;;;24.30;68.60;;;;;;5010123;28;20191;-73
2023/07/10 12:05:40;;;;;;;4.55;4.07;;;24.30;68.80;;;;;;5029552;28;20285;-71
2023/07/10 12:08:08;;;;;;;3.97;3.67;;;24.20;68.50;;;;;;5021698;28;20245;-73
2023/07/10 12:10:45;;;;;;;4.30;3.90;;;24.30;68.70;;;;;;5018683;28;20564;-73
2023/07/10 12:13:30;;;;;;;4.65;3.92;;;24.30;69.00;;;;;;5020997;28;20304;-74
2023/07/10 12:16:08;;;;;;;4.05;3.75;;;24.30;68.80;;;;;;5008583;28;20207;-72
2023/07/10 12:18:38;;;;;;;4.15;3.75;;;24.30;68.50;;;;;;5027377;28;20183;-73
2023/07/10 12:21:20;;;;;;;4.32;3.92;;;24.30;68.40;;;;;;5019027;28;20210;-72
2023/07/10 12:23:59;;;;;;;3.80;3.50;;;24.30;68.60;;;;;;5033092;28;20183;-73
2023/07/10 12:26:25;;;;;;;4.32;3.50;;;24.30;68.50;;;;;;5024032;28;20226;-73
2023/07/10 12:28:57;;;;;;;4.13;3.72;;;24.30;68.40;;;;;;5038384;28;20184;-73
2023/07/10 12:31:24;;;;;;;4.50;4.10;;;24.30;68.40;;;;;;5021559;28;20191;-73
2023/07/10 12:33:52;;;;;;;4.00;3.70;;;24.30;68.40;;;;;;5022841;28;20202;-71
2023/07/10 12:36:31;;;;;;;4.32;3.92;;;24.30;68.50;;;;;;5016721;28;20270;-71
2023/07/10 12:39:03;;;;;;;4.32;4.00;;;24.30;68.40;;;;;;5021125;28;20188;-73
2023/07/10 12:41:34;;;;;;;4.57;4.00;;;24.30;68.40;;;;;;5022066;28;20247;-72
2023/07/10 12:44:02;;;;;;;4.38;3.97;;;24.30;68.40;;;;;;5018715;28;20191;-71
2023/07/10 12:46:30;;;;;;;4.28;3.88;;;24.30;68.50;;;;;;5019077;28;20208;-72
2023/07/10 12:49:10;;;;;;;4.22;3.70;;;24.30;68.30;;;;;;5041195;28;20188;-72
2023/07/10 12:51:40;;;;;;;4.15;3.75;;;24.30;68.40;;;;;;5014643;28;20191;-72
2023/07/10 12:54:20;;;;;;;4.18;3.78;;;24.30;68.30;;;;;;5032141;28;20198;-73
2023/07/10 12:56:47;;;;;;;4.35;3.95;;;24.30;68.30;;;;;;5015162;28;20199;-73
2023/07/10 12:59:30;;;;;;;4.57;3.80;;;24.40;68.40;;;;;;5031161;28;20186;-73
2023/07/10 13:02:12;;;;;;;4.55;3.75;;;24.40;68.40;;;;;;5044252;28;20206;-72
2023/07/10 13:04:41;;;;;;;4.05;3.75;;;24.40;68.40;;;;;;5042200;28;20217;-73
2023/07/10 13:07:19;;;;;;;4.28;3.95;;;24.30;68.60;;;;;;5020132;28;20182;-73
2023/07/10 13:09:58;;;;;;;4.63;3.70;;;24.30;68.40;;;;;;5035246;28;20183;-72